createdAt,value
2022-12-14T00:00:17.819Z,4.31
2022-12-14T00:02:19.362Z,4.33
2022-12-14T00:04:20.906Z,4.29
2022-12-14T00:06:24.419Z,4.36
2022-12-14T00:08:26.381Z,4.34
2022-12-14T00:10:30.010Z,4.28
2022-12-14T00:12:31.484Z,4.26
2022-12-14T00:14:33.051Z,4.37
2022-12-14T00:16:35.777Z,4.41
2022-12-14T00:18:37.359Z,4.43
2022-12-14T00:20:38.907Z,4.40
2022-12-14T00:22:40.376Z,4.42
2022-12-14T00:24:41.881Z,4.35
2022-12-14T00:26:44.745Z,4.35
2022-12-14T00:28:48.319Z,4.40
2022-12-14T00:30:58.338Z,4.42
2022-12-14T00:33:00.100Z,4.36
2022-12-14T00:35:01.624Z,4.41
2022-12-14T00:37:03.176Z,4.42
2022-12-14T00:39:04.856Z,4.40
2022-12-14T00:41:08.015Z,4.37
2022-12-14T00:43:11.132Z,4.29
2022-12-14T00:45:12.607Z,4.16
2022-12-14T00:47:14.108Z,4.20
2022-12-14T00:49:15.597Z,4.23
2022-12-14T00:51:17.324Z,4.14
2022-12-14T00:53:19.163Z,4.21
2022-12-14T00:55:20.703Z,4.18
2022-12-14T00:57:22.175Z,4.21
2022-12-14T00:59:27.363Z,4.24
2022-12-14T01:01:29.282Z,4.24
2022-12-14T01:03:31.539Z,4.13
2022-12-14T01:05:33.851Z,4.12
2022-12-14T01:07:35.425Z,4.10
2022-12-14T01:09:37.218Z,4.12
2022-12-14T01:11:39.438Z,4.10
2022-12-14T01:13:42.128Z,4.14
2022-12-14T01:15:45.111Z,4.14
2022-12-14T01:17:46.654Z,4.20
2022-12-14T01:19:48.943Z,4.16
2022-12-14T01:21:51.004Z,4.12
2022-12-14T01:23:54.403Z,4.21
2022-12-14T01:25:59.015Z,4.24
2022-12-14T01:28:00.621Z,4.16
2022-12-14T01:30:02.264Z,4.20
2022-12-14T01:32:05.700Z,4.15
2022-12-14T01:34:07.420Z,4.20
2022-12-14T01:36:11.074Z,4.20
2022-12-14T01:38:12.565Z,4.06
2022-12-14T01:40:14.062Z,4.03
2022-12-14T01:42:16.337Z,4.01
2022-12-14T01:44:53.707Z,4.08
2022-12-14T01:47:00.681Z,4.08
2022-12-14T01:49:11.771Z,4.01
2022-12-14T01:51:13.358Z,4.07
2022-12-14T01:53:20.591Z,4.08
2022-12-14T01:55:25.415Z,4.09
2022-12-14T01:57:31.550Z,4.12
2022-12-14T01:59:36.486Z,4.10
2022-12-14T02:01:38.613Z,3.98
2022-12-14T02:03:52.414Z,4.03
2022-12-14T02:06:01.082Z,4.07
2022-12-14T02:08:03.279Z,4.01
2022-12-14T02:10:06.982Z,4.11
2022-12-14T02:12:12.811Z,4.17
2022-12-14T02:14:14.278Z,4.20
2022-12-14T02:16:15.952Z,4.25
2022-12-14T02:18:20.806Z,4.21
2022-12-14T02:20:23.059Z,4.29
2022-12-14T02:22:48.955Z,4.29
2022-12-14T02:25:06.732Z,4.31
2022-12-14T02:27:20.824Z,4.39
2022-12-14T02:29:44.367Z,4.43
2022-12-14T02:31:53.918Z,4.46
2022-12-14T02:34:02.897Z,4.46
2022-12-14T02:36:13.219Z,4.46
2022-12-14T02:38:35.506Z,4.31
2022-12-14T02:40:44.822Z,4.36
2022-12-14T02:43:01.323Z,4.33
2022-12-14T02:45:11.479Z,4.42
2022-12-14T02:47:21.541Z,4.44
2022-12-14T02:49:39.763Z,4.45
2022-12-14T02:51:52.675Z,4.36
2022-12-14T02:54:01.256Z,4.36
2022-12-14T02:56:08.326Z,4.35
2022-12-14T02:58:14.967Z,4.42
2022-12-14T03:00:18.720Z,4.44
2022-12-14T03:02:20.752Z,4.47
2022-12-14T03:04:24.072Z,4.44
2022-12-14T03:06:25.947Z,4.37
2022-12-14T03:08:31.458Z,4.38
2022-12-14T03:10:39.119Z,4.43
2022-12-14T03:12:44.881Z,4.42
2022-12-14T03:14:50.365Z,4.50
2022-12-14T03:16:54.032Z,4.55
2022-12-14T03:18:58.886Z,4.57
2022-12-14T03:21:00.989Z,4.61
2022-12-14T03:23:07.429Z,4.60
2022-12-14T03:25:14.741Z,4.63
2022-12-14T03:27:23.534Z,4.67
2022-12-14T03:29:29.449Z,4.66
2022-12-14T03:31:36.543Z,4.65
2022-12-14T03:33:42.826Z,4.64
2022-12-14T03:35:49.972Z,4.69
2022-12-14T03:37:57.438Z,4.69
2022-12-14T03:39:58.963Z,4.72
2022-12-14T03:42:09.006Z,4.76
2022-12-14T03:44:22.823Z,4.71
2022-12-14T03:46:35.625Z,4.72
2022-12-14T03:48:45.039Z,4.76
2022-12-14T03:50:52.995Z,4.69
2022-12-14T03:53:02.305Z,4.68
2022-12-14T03:55:17.483Z,4.70
2022-12-14T03:57:32.634Z,4.72
2022-12-14T03:59:38.659Z,4.72
2022-12-14T04:01:45.942Z,4.73
2022-12-14T04:03:57.795Z,4.74
2022-12-14T04:06:03.671Z,4.71
2022-12-14T04:08:10.819Z,4.75
2022-12-14T04:10:14.997Z,4.76
2022-12-14T04:12:23.174Z,4.79
2022-12-14T04:14:30.498Z,4.84
2022-12-14T04:16:38.012Z,4.79
2022-12-14T04:18:42.664Z,4.76
2022-12-14T04:20:50.049Z,4.74
2022-12-14T04:22:56.433Z,4.78
2022-12-14T04:25:01.942Z,4.74
2022-12-14T04:27:09.768Z,4.73
2022-12-14T04:29:16.585Z,4.66
2022-12-14T04:31:22.688Z,4.66
2022-12-14T04:33:25.220Z,4.68
2022-12-14T04:35:33.947Z,4.68
2022-12-14T04:37:39.965Z,4.69
2022-12-14T04:39:47.171Z,4.61
2022-12-14T04:41:53.298Z,4.61
2022-12-14T04:43:57.290Z,4.60
2022-12-14T04:46:05.561Z,4.60
2022-12-14T04:48:12.913Z,4.61
2022-12-14T04:50:22.434Z,4.65
2022-12-14T04:52:29.613Z,4.63
2022-12-14T04:54:43.720Z,4.62
2022-12-14T04:56:51.146Z,4.66
2022-12-14T04:58:53.842Z,4.67
2022-12-14T05:01:15.201Z,4.70
2022-12-14T05:03:23.819Z,4.70
2022-12-14T05:05:29.198Z,4.63
2022-12-14T05:07:40.253Z,4.67
2022-12-14T05:09:54.499Z,4.72
2022-12-14T05:12:05.083Z,4.74
2022-12-14T05:14:11.877Z,4.67
2022-12-14T05:16:17.276Z,4.64
2022-12-14T05:18:19.334Z,4.66
2022-12-14T05:20:23.416Z,4.68
2022-12-14T05:22:24.898Z,4.70
2022-12-14T05:24:26.419Z,4.65
2022-12-14T05:26:30.485Z,4.62
2022-12-14T05:28:31.980Z,4.59
2022-12-14T05:30:34.454Z,4.56
2022-12-14T05:32:36.098Z,4.52
2022-12-14T05:34:37.575Z,4.54
2022-12-14T05:36:39.013Z,4.62
2022-12-14T05:38:40.500Z,4.60
2022-12-14T05:40:42.008Z,4.55
2022-12-14T05:42:47.711Z,4.59
2022-12-14T05:44:52.498Z,4.64
2022-12-14T05:46:54.004Z,4.68
2022-12-14T05:48:55.508Z,4.65
2022-12-14T05:51:04.524Z,4.21
2022-12-14T05:53:06.190Z,4.08
2022-12-14T05:55:08.976Z,4.20
2022-12-14T05:57:10.647Z,4.33
2022-12-14T05:59:13.482Z,4.45
2022-12-14T06:01:18.989Z,4.48
2022-12-14T06:03:21.268Z,4.55
2022-12-14T06:05:22.775Z,4.59
2022-12-14T06:07:27.665Z,4.19
2022-12-14T06:09:29.967Z,3.98
2022-12-14T06:11:31.399Z,3.83
2022-12-14T06:13:32.894Z,3.43
2022-12-14T06:15:35.719Z,3.44
2022-12-14T06:17:44.981Z,3.59
2022-12-14T06:19:49.557Z,3.73
2022-12-14T06:21:51.903Z,3.90
2022-12-14T06:23:54.294Z,3.97
2022-12-14T06:25:56.509Z,3.80
2022-12-14T06:27:57.997Z,3.72
2022-12-14T06:29:59.487Z,3.68
2022-12-14T06:32:02.629Z,3.41
2022-12-14T06:34:05.585Z,3.06
2022-12-14T06:36:07.539Z,2.87
2022-12-14T06:38:09.025Z,2.84
2022-12-14T06:40:11.450Z,3.14
2022-12-14T06:42:12.985Z,3.07
2022-12-14T06:44:14.509Z,2.79
2022-12-14T06:46:18.400Z,2.85
2022-12-14T06:48:21.626Z,2.87
2022-12-14T06:50:23.095Z,3.05
2022-12-14T06:52:26.915Z,3.07
2022-12-14T06:54:29.067Z,2.89
2022-12-14T06:56:30.732Z,2.91
2022-12-14T06:58:32.716Z,3.01
2022-12-14T07:00:34.174Z,3.03
2022-12-14T07:02:36.032Z,3.06
2022-12-14T07:04:41.256Z,2.98
2022-12-14T07:06:42.721Z,2.92
2022-12-14T07:08:45.034Z,3.01
2022-12-14T07:10:46.489Z,3.12
2022-12-14T07:12:47.943Z,3.15
2022-12-14T07:14:49.403Z,3.34
2022-12-14T07:16:50.872Z,3.31
2022-12-14T07:18:54.129Z,3.25
2022-12-14T07:20:58.096Z,3.34
2022-12-14T07:22:59.707Z,3.46
2022-12-14T07:25:01.333Z,3.51
2022-12-14T07:27:02.851Z,3.55
2022-12-14T07:29:04.346Z,3.65
2022-12-14T07:31:07.529Z,3.77
2022-12-14T07:33:09.103Z,3.91
2022-12-14T07:35:16.401Z,4.02
2022-12-14T07:37:19.692Z,4.09
2022-12-14T07:39:22.173Z,4.14
2022-12-14T07:41:25.782Z,4.16
2022-12-14T07:43:27.636Z,4.01
2022-12-14T07:45:30.227Z,3.85
2022-12-14T07:47:31.699Z,3.84
2022-12-14T07:49:33.187Z,3.76
2022-12-14T07:51:37.100Z,3.84
2022-12-14T07:53:40.410Z,3.96
2022-12-14T07:55:41.847Z,4.08
2022-12-14T07:57:43.512Z,4.13
2022-12-14T07:59:45.005Z,4.20
2022-12-14T08:01:46.631Z,4.28
2022-12-14T08:03:50.775Z,4.36
2022-12-14T08:05:52.261Z,4.37
2022-12-14T08:07:53.703Z,4.35
2022-12-14T08:09:56.581Z,4.37
2022-12-14T08:11:58.094Z,4.38
2022-12-14T08:14:01.010Z,4.16
2022-12-14T08:16:03.692Z,4.06
2022-12-14T08:18:05.369Z,3.83
2022-12-14T08:20:07.668Z,3.88
2022-12-14T08:22:09.196Z,3.86
2022-12-14T08:24:11.559Z,3.96
2022-12-14T08:26:14.438Z,4.06
2022-12-14T08:28:16.007Z,4.16
2022-12-14T08:30:17.692Z,4.22
2022-12-14T08:32:19.208Z,4.27
2022-12-14T08:34:20.737Z,4.32
2022-12-14T08:36:23.760Z,4.35
2022-12-14T08:38:25.495Z,4.39
2022-12-14T08:40:27.128Z,4.42
2022-12-14T08:42:29.969Z,4.45
2022-12-14T08:44:31.482Z,4.46
2022-12-14T08:46:35.138Z,4.44
2022-12-14T08:48:36.745Z,4.39
2022-12-14T08:50:38.350Z,4.44
2022-12-14T08:52:39.939Z,4.45
2022-12-14T08:54:41.456Z,4.51
2022-12-14T08:56:43.022Z,4.48
2022-12-14T08:58:46.203Z,4.51
2022-12-14T09:00:47.764Z,4.53
2022-12-14T09:02:50.264Z,4.23
2022-12-14T09:04:51.938Z,3.80
2022-12-14T09:06:53.417Z,3.76
2022-12-14T09:08:55.564Z,3.51
2022-12-14T09:10:57.346Z,3.29
2022-12-14T09:12:58.960Z,3.37
2022-12-14T09:15:01.912Z,3.56
2022-12-14T09:17:03.861Z,3.74
2022-12-14T09:19:05.376Z,3.78
2022-12-14T09:21:07.501Z,3.85
2022-12-14T09:23:09.008Z,3.95
2022-12-14T09:25:10.521Z,4.01
2022-12-14T09:27:12.051Z,3.99
2022-12-14T09:29:14.913Z,3.97
2022-12-14T09:31:20.587Z,4.04
2022-12-14T09:33:22.143Z,4.12
2022-12-14T09:35:23.647Z,4.21
2022-12-14T09:37:25.198Z,4.25
2022-12-14T09:39:26.821Z,4.26
2022-12-14T09:41:44.520Z,4.18
2022-12-14T09:43:53.342Z,4.24
2022-12-14T09:46:01.456Z,4.10
2022-12-14T09:48:12.478Z,4.10
2022-12-14T09:50:17.098Z,4.06
2022-12-14T09:52:25.908Z,4.08
2022-12-14T09:54:29.876Z,4.17
2022-12-14T09:56:32.665Z,4.30
2022-12-14T09:58:35.350Z,4.41
2022-12-14T10:00:40.350Z,4.48
2022-12-14T10:02:53.264Z,4.54
2022-12-14T10:05:09.511Z,4.59
2022-12-14T10:40:35.331Z,4.78
2022-12-14T10:42:49.484Z,4.84
2022-12-14T10:45:39.602Z,4.81
2022-12-14T10:47:29.599Z,4.86
2022-12-14T10:49:37.715Z,4.87
2022-12-14T10:51:43.676Z,4.86
2022-12-14T10:53:51.573Z,4.77
2022-12-14T10:56:00.447Z,4.67
2022-12-14T10:58:03.381Z,4.67
2022-12-14T11:00:18.479Z,4.62
2022-12-14T11:02:27.495Z,4.63
2022-12-14T11:04:33.038Z,4.72
2022-12-14T11:06:34.648Z,4.75
2022-12-14T11:08:42.980Z,4.84
2022-12-14T11:11:06.772Z,4.90
2022-12-14T11:13:17.229Z,4.94
2022-12-14T11:15:25.842Z,4.93
2022-12-14T11:17:36.647Z,4.98
2022-12-14T11:19:38.323Z,5.02
2022-12-14T11:21:39.929Z,5.00
2022-12-14T11:23:43.075Z,5.05
2022-12-14T11:25:47.278Z,5.09
2022-12-14T11:27:50.216Z,5.17
2022-12-14T11:29:51.889Z,5.17
2022-12-14T11:31:53.510Z,5.14
2022-12-14T11:33:56.931Z,5.09
2022-12-14T11:35:59.048Z,5.14
2022-12-14T11:38:00.811Z,5.13
2022-12-14T11:40:05.454Z,4.99
2022-12-14T11:42:16.050Z,4.95
2022-12-14T11:44:26.914Z,5.01
2022-12-14T11:46:44.709Z,5.06
2022-12-14T11:48:48.837Z,5.05
2022-12-14T11:50:53.170Z,4.94
2022-12-14T11:53:10.772Z,4.70
2022-12-14T11:55:14.776Z,4.66
2022-12-14T11:57:22.428Z,4.54
2022-12-14T11:59:29.864Z,4.64
2022-12-14T12:01:31.442Z,4.73
2022-12-14T12:03:37.173Z,4.82
2022-12-14T12:05:42.598Z,4.92
2022-12-14T12:07:52.449Z,4.98
2022-12-14T12:09:54.476Z,4.98
2022-12-14T12:11:56.993Z,5.06
2022-12-14T12:14:00.642Z,5.10
2022-12-14T12:16:06.398Z,5.12
2022-12-14T12:18:15.911Z,5.18
2022-12-14T12:20:32.721Z,5.15
2022-12-14T12:22:35.394Z,5.13
2022-12-14T12:25:08.354Z,5.08
2022-12-14T12:27:08.067Z,5.06
2022-12-14T12:29:16.403Z,5.13
2022-12-14T12:31:23.774Z,5.15
2022-12-14T12:33:32.172Z,4.89
2022-12-14T12:35:43.081Z,4.68
2022-12-14T12:37:48.792Z,4.67
2022-12-14T12:39:58.979Z,4.76
2022-12-14T12:42:06.615Z,4.83
2022-12-14T12:44:27.643Z,4.89
2022-12-14T12:46:35.936Z,4.90
2022-12-14T12:48:50.378Z,4.98
2022-12-14T12:50:55.570Z,5.03
2022-12-14T12:53:03.687Z,5.10
2022-12-14T12:55:14.208Z,5.17
2022-12-14T12:57:19.128Z,5.19
2022-12-14T12:59:26.750Z,5.18
2022-12-14T13:01:34.354Z,5.15
2022-12-14T13:03:39.200Z,5.15
2022-12-14T13:05:47.077Z,5.16
2022-12-14T13:07:52.855Z,5.19
2022-12-14T13:10:03.623Z,5.19
2022-12-14T13:12:14.724Z,5.21
2022-12-14T13:14:23.907Z,5.21
2022-12-14T13:16:30.908Z,5.22
2022-12-14T13:21:07.720Z,5.16
2022-12-14T13:23:36.461Z,5.18
2022-12-14T13:25:45.039Z,5.19
2022-12-14T13:28:08.711Z,5.21
2022-12-14T13:30:30.180Z,5.09
2022-12-14T13:32:47.000Z,5.10
2022-12-14T13:35:00.457Z,5.10
2022-12-14T13:37:27.130Z,5.08
2022-12-14T13:39:51.604Z,5.04
2022-12-14T13:42:01.052Z,5.08
2022-12-14T13:44:36.096Z,4.96
2022-12-14T13:46:42.159Z,4.99
2022-12-14T13:48:49.127Z,5.02
2022-12-14T13:51:01.930Z,5.08
2022-12-14T13:53:11.317Z,5.04
2022-12-14T13:55:26.879Z,5.09
2022-12-14T13:57:28.984Z,5.10
2022-12-14T13:59:34.181Z,5.13
2022-12-14T14:01:54.707Z,5.13
2022-12-14T14:04:16.670Z,5.13
2022-12-14T14:06:30.435Z,5.12
2022-12-14T14:08:39.332Z,5.16
2022-12-14T14:10:43.200Z,5.14
2022-12-14T14:12:44.808Z,5.17
2022-12-14T14:14:52.367Z,5.18
2022-12-14T14:16:57.588Z,5.14
2022-12-14T14:19:03.888Z,5.15
2022-12-14T14:21:31.049Z,5.16
2022-12-14T14:23:36.586Z,5.15
2022-12-14T14:25:40.091Z,5.13
2022-12-14T14:27:50.250Z,5.16
2022-12-14T14:29:53.004Z,5.16
2022-12-14T14:31:58.417Z,5.15
2022-12-14T14:34:00.572Z,5.13
2022-12-14T14:36:09.368Z,5.15
2022-12-14T14:38:25.629Z,5.08
2022-12-14T14:40:51.450Z,5.10
2022-12-14T14:42:59.239Z,5.07
2022-12-14T14:45:04.426Z,5.08
2022-12-14T14:47:15.568Z,5.05
2022-12-14T14:49:24.268Z,5.03
2022-12-14T14:51:28.077Z,4.96
2022-12-14T14:53:33.203Z,4.98
2022-12-14T14:56:00.296Z,4.98
2022-12-14T14:58:05.476Z,4.97
2022-12-14T15:00:11.512Z,4.97
2022-12-14T15:02:40.711Z,5.01
2022-12-14T15:04:46.085Z,5.02
2022-12-14T15:06:51.328Z,5.00
2022-12-14T15:08:58.467Z,4.96
2022-12-14T15:11:03.545Z,4.94
2022-12-14T15:13:08.656Z,4.89
2022-12-14T15:15:18.131Z,4.87
2022-12-14T15:17:22.225Z,4.87
2022-12-14T15:19:29.415Z,4.90
2022-12-14T15:21:32.369Z,4.84
2022-12-14T15:23:36.987Z,4.83
2022-12-14T15:25:40.934Z,4.85
2022-12-14T15:27:49.984Z,4.85
2022-12-14T15:29:52.494Z,4.84
2022-12-14T15:31:59.501Z,4.86
2022-12-14T15:34:03.054Z,4.89
2022-12-14T15:36:08.154Z,4.88
2022-12-14T15:38:25.516Z,4.80
2022-12-14T15:40:28.524Z,4.77
2022-12-14T15:42:31.525Z,4.75
2022-12-14T15:44:33.337Z,4.76
2022-12-14T15:46:36.114Z,4.80
2022-12-14T15:48:37.885Z,4.79
2022-12-14T15:50:43.918Z,4.79
2022-12-14T15:52:46.872Z,4.79
2022-12-14T15:54:48.381Z,4.83
2022-12-14T15:56:53.420Z,4.81
2022-12-14T15:58:58.811Z,4.79
2022-12-14T16:01:09.107Z,4.76
2022-12-14T16:03:19.374Z,4.79
2022-12-14T16:05:22.400Z,4.79
2022-12-14T16:07:30.137Z,4.79
2022-12-14T16:09:35.387Z,4.81
2022-12-14T16:11:41.826Z,4.82
2022-12-14T16:13:47.871Z,4.81
2022-12-14T16:15:52.059Z,4.78
2022-12-14T16:18:01.662Z,4.77
2022-12-14T16:20:19.116Z,4.77
2022-12-14T16:22:23.102Z,4.77
2022-12-14T16:24:25.415Z,4.69
2022-12-14T16:26:31.879Z,4.70
2022-12-14T16:28:35.575Z,4.70
2022-12-14T16:30:37.420Z,4.70
2022-12-14T16:32:40.308Z,4.69
2022-12-14T16:34:47.895Z,4.70
2022-12-14T16:37:08.461Z,4.73
2022-12-14T16:39:17.089Z,4.67
2022-12-14T16:41:18.812Z,4.68
2022-12-14T16:43:32.949Z,4.73
2022-12-14T16:46:07.486Z,4.73
2022-12-14T16:48:15.584Z,4.75
2022-12-14T16:50:47.599Z,4.74
2022-12-14T16:52:45.070Z,4.70
2022-12-14T16:55:07.286Z,4.70
2022-12-14T16:57:19.680Z,4.67
2022-12-14T16:59:23.315Z,4.63
2022-12-14T17:01:25.949Z,4.69
2022-12-14T17:03:30.354Z,4.63
2022-12-14T17:05:35.844Z,4.65
2022-12-14T17:07:37.605Z,4.66
2022-12-14T17:09:39.152Z,4.66
2022-12-14T17:11:40.700Z,4.64
2022-12-14T17:13:42.226Z,4.62
2022-12-14T17:15:56.871Z,4.59
2022-12-14T17:18:01.341Z,4.65
2022-12-14T17:20:10.499Z,4.61
2022-12-14T17:22:19.677Z,4.66
2022-12-14T17:24:22.099Z,4.61
2022-12-14T17:26:26.011Z,4.62
2022-12-14T17:28:29.941Z,4.56
2022-12-14T17:30:31.447Z,4.57
2022-12-14T17:32:34.434Z,4.60
2022-12-14T17:34:35.918Z,4.61
2022-12-14T17:36:38.896Z,4.63
2022-12-14T17:38:40.716Z,4.62
2022-12-14T17:40:43.885Z,4.58
2022-12-14T17:42:51.271Z,4.58
2022-12-14T17:44:56.435Z,4.61
2022-12-14T17:46:58.044Z,4.56
2022-12-14T17:49:06.008Z,4.53
2022-12-14T17:51:14.781Z,4.52
2022-12-14T17:53:24.541Z,4.56
2022-12-14T17:55:28.226Z,4.57
2022-12-14T17:57:29.733Z,4.55
2022-12-14T17:59:31.407Z,4.52
2022-12-14T18:01:33.109Z,4.52
2022-12-14T18:03:35.471Z,4.54
2022-12-14T18:05:42.145Z,4.47
2022-12-14T18:07:46.763Z,4.39
2022-12-14T18:09:52.920Z,4.42
2022-12-14T18:12:22.262Z,4.37
2022-12-14T18:14:15.964Z,4.33
2022-12-14T18:16:19.779Z,4.34
2022-12-14T18:18:23.077Z,4.34
2022-12-14T18:20:24.850Z,4.37
2022-12-14T18:22:26.391Z,4.36
2022-12-14T18:24:27.908Z,4.35
2022-12-14T18:26:30.832Z,4.35
2022-12-14T18:28:32.507Z,4.37
2022-12-14T18:30:41.788Z,4.37
2022-12-14T18:32:44.890Z,4.35
2022-12-14T18:34:46.374Z,4.26
2022-12-14T18:36:47.840Z,4.21
2022-12-14T18:38:49.823Z,4.21
2022-12-14T18:40:53.976Z,4.20
2022-12-14T18:42:57.434Z,4.22
2022-12-14T18:44:58.949Z,4.17
2022-12-14T18:47:20.336Z,4.24
2022-12-14T18:49:21.968Z,4.26
2022-12-14T18:51:24.144Z,4.28
2022-12-14T18:53:26.137Z,4.23
2022-12-14T18:55:30.384Z,4.20
2022-12-14T18:57:32.021Z,4.19
2022-12-14T18:59:40.622Z,4.22
2022-12-14T19:01:43.865Z,4.21
2022-12-14T19:03:45.771Z,4.21
2022-12-14T19:05:47.682Z,4.21
2022-12-14T19:07:49.725Z,4.14
2022-12-14T19:09:51.416Z,4.17
2022-12-14T19:11:52.939Z,4.19
2022-12-14T19:13:54.448Z,4.23
2022-12-14T19:15:57.287Z,4.20
2022-12-14T19:17:59.130Z,4.17
2022-12-14T19:20:00.679Z,4.16
2022-12-14T19:22:02.211Z,4.16
2022-12-14T19:24:04.106Z,4.17
2022-12-14T19:26:05.829Z,4.19
2022-12-14T19:30:28.872Z,4.11
2022-12-14T19:32:31.850Z,4.14
2022-12-14T19:34:33.527Z,4.16
2022-12-14T19:36:35.168Z,4.17
2022-12-14T19:38:37.294Z,4.18
2022-12-14T19:40:39.015Z,4.19
2022-12-14T19:42:40.715Z,4.20
2022-12-14T19:44:42.479Z,4.19
2022-12-14T19:46:44.029Z,4.14
2022-12-14T19:48:46.977Z,4.14
2022-12-14T19:50:49.366Z,4.13
2022-12-14T19:52:51.478Z,4.18
2022-12-14T19:54:53.051Z,4.19
2022-12-14T19:56:54.604Z,4.20
2022-12-14T19:58:58.818Z,4.15
2022-12-14T20:01:00.350Z,4.15
2022-12-14T20:03:02.068Z,4.15
2022-12-14T20:05:06.244Z,4.15
2022-12-14T20:07:08.941Z,4.19
2022-12-14T20:09:14.179Z,4.15
2022-12-14T20:11:15.695Z,4.17
2022-12-14T20:13:17.239Z,4.14
2022-12-14T20:15:18.786Z,4.10
2022-12-14T20:17:20.291Z,4.04
2022-12-14T20:19:22.015Z,3.98
2022-12-14T20:21:24.960Z,3.95
2022-12-14T20:23:26.498Z,3.93
2022-12-14T20:25:28.020Z,3.93
2022-12-14T20:27:29.552Z,3.91
2022-12-14T20:29:30.998Z,3.88
2022-12-14T20:31:33.079Z,3.84
2022-12-14T20:33:35.356Z,3.84
2022-12-14T20:35:37.135Z,3.83
2022-12-14T20:37:40.000Z,3.80
2022-12-14T20:39:41.465Z,3.80
2022-12-14T20:41:43.014Z,3.74
2022-12-14T20:43:45.211Z,3.75
2022-12-14T20:45:46.716Z,3.72
2022-12-14T20:47:51.792Z,3.64
2022-12-14T20:49:53.314Z,3.63
2022-12-14T20:51:54.956Z,3.68
2022-12-14T20:53:58.405Z,3.71
2022-12-14T20:56:03.227Z,3.69
2022-12-14T20:58:04.869Z,3.63
2022-12-14T21:00:07.599Z,3.55
2022-12-14T21:02:16.089Z,3.31
2022-12-14T21:04:17.617Z,3.18
2022-12-14T21:06:21.446Z,3.08
2022-12-14T21:08:23.044Z,3.06
2022-12-14T21:10:26.021Z,3.17
2022-12-14T21:12:27.550Z,3.23
2022-12-14T21:14:31.139Z,3.17
2022-12-14T21:16:32.768Z,3.08
2022-12-14T21:18:34.259Z,2.94
2022-12-14T21:20:36.454Z,3.01
2022-12-14T21:22:37.963Z,3.10
2022-12-14T21:27:02.544Z,3.12
2022-12-14T21:29:04.680Z,3.17
2022-12-14T21:31:07.846Z,3.16
2022-12-14T21:33:09.467Z,3.27
2022-12-14T21:35:11.033Z,3.32
2022-12-14T21:37:12.821Z,3.42
2022-12-14T21:39:16.002Z,3.46
2022-12-14T21:41:17.404Z,3.44
2022-12-14T21:43:20.296Z,3.54
2022-12-14T21:45:21.790Z,3.54
2022-12-14T21:47:25.775Z,3.56
2022-12-14T21:49:27.298Z,3.52
2022-12-14T21:51:28.826Z,3.57
2022-12-14T21:53:35.002Z,3.57
2022-12-14T21:55:36.946Z,3.59
2022-12-14T21:57:38.507Z,3.60
2022-12-14T21:59:42.722Z,3.63
2022-12-14T22:01:44.802Z,3.62
2022-12-14T22:03:46.496Z,3.60
2022-12-14T22:05:51.019Z,3.62
2022-12-14T22:07:52.491Z,3.62
2022-12-14T22:09:53.999Z,3.61
2022-12-14T22:11:55.474Z,3.58
2022-12-14T22:13:56.929Z,3.46
2022-12-14T22:16:04.500Z,3.34
2022-12-14T22:18:06.279Z,3.21
2022-12-14T22:20:08.823Z,3.18
2022-12-14T22:22:13.706Z,2.87
2022-12-14T22:24:15.798Z,2.70
2022-12-14T22:26:17.496Z,2.50
2022-12-14T22:28:18.994Z,2.64
2022-12-14T22:30:20.466Z,2.73
2022-12-14T22:32:23.308Z,2.82
2022-12-14T22:34:24.798Z,2.81
2022-12-14T22:36:26.299Z,2.82
2022-12-14T22:38:31.731Z,2.68
2022-12-14T22:40:34.201Z,2.48
2022-12-14T22:42:35.750Z,2.44
2022-12-14T22:44:37.303Z,2.49
2022-12-14T22:46:39.476Z,2.46
2022-12-14T22:48:42.302Z,2.41
2022-12-14T22:50:44.008Z,2.45
2022-12-14T22:52:49.862Z,2.55
2022-12-14T22:54:51.835Z,2.57
2022-12-14T22:56:57.779Z,2.50
2022-12-14T22:59:04.847Z,2.43
2022-12-14T23:01:07.086Z,2.56
2022-12-14T23:03:09.723Z,2.67
2022-12-14T23:05:13.130Z,2.71
2022-12-14T23:07:15.011Z,2.69
2022-12-14T23:09:16.599Z,2.73
2022-12-14T23:11:18.124Z,2.81
2022-12-14T23:13:19.620Z,2.84
2022-12-14T23:15:21.097Z,2.72
2022-12-14T23:17:22.922Z,2.52
2022-12-14T23:19:24.412Z,2.61
2022-12-14T23:21:27.225Z,2.71
2022-12-14T23:23:29.265Z,2.73
2022-12-14T23:25:33.243Z,2.77
2022-12-14T23:27:34.715Z,2.83
2022-12-14T23:29:36.310Z,2.89
2022-12-14T23:31:37.806Z,2.94
2022-12-14T23:33:39.291Z,2.95
2022-12-14T23:35:40.776Z,3.02
2022-12-14T23:37:43.604Z,3.08
2022-12-14T23:39:45.147Z,3.10
2022-12-14T23:41:46.639Z,3.16
2022-12-14T23:43:48.136Z,3.23
2022-12-14T23:45:49.710Z,3.29
2022-12-14T23:47:51.229Z,3.25
2022-12-14T23:49:54.477Z,3.20
2022-12-14T23:51:55.963Z,3.27
2022-12-14T23:53:58.912Z,3.33
2022-12-14T23:56:00.470Z,3.37
2022-12-14T23:58:01.960Z,3.41
